sensor_id;sensor_type;location;lat;lon;timestamp;temperature;humidity
19085;DHT22;9675;51.538;6.728;2023-10-13T00:00:29;18.00;99.90
19085;DHT22;9675;51.538;6.728;2023-10-13T00:03:01;18.10;99.90
19085;DHT22;9675;51.538;6.728;2023-10-13T00:05:28;18.00;99.90
19085;DHT22;9675;51.538;6.728;2023-10-13T00:07:59;18.00;99.90
19085;DHT22;9675;51.538;6.728;2023-10-13T00:10:28;18.00;99.90
19085;DHT22;9675;51.538;6.728;2023-10-13T00:12:56;18.10;99.90
19085;DHT22;9675;51.538;6.728;2023-10-13T00:15:31;18.00;99.90
19085;DHT22;9675;51.538;6.728;2023-10-13T00:18:04;18.10;99.90
19085;DHT22;9675;51.538;6.728;2023-10-13T00:20:38;18.00;99.90
19085;DHT22;9675;51.538;6.728;2023-10-13T00:23:07;18.10;99.90
19085;DHT22;9675;51.538;6.728;2023-10-13T00:25:34;18.10;99.90
19085;DHT22;9675;51.538;6.728;2023-10-13T00:28:09;18.10;99.90
19085;DHT22;9675;51.538;6.728;2023-10-13T00:30:36;18.10;99.90
19085;DHT22;9675;51.538;6.728;2023-10-13T00:33:04;18.10;99.90
19085;DHT22;9675;51.538;6.728;2023-10-13T00:35:31;18.10;99.90
19085;DHT22;9675;51.538;6.728;2023-10-13T00:38:03;18.10;99.90
19085;DHT22;9675;51.538;6.728;2023-10-13T00:40:40;18.10;99.90
19085;DHT22;9675;51.538;6.728;2023-10-13T00:43:08;18.10;99.90
19085;DHT22;9675;51.538;6.728;2023-10-13T00:45:54;18.10;99.90
19085;DHT22;9675;51.538;6.728;2023-10-13T00:48:23;18.10;99.90
19085;DHT22;9675;51.538;6.728;2023-10-13T00:51:01;18.10;99.90
19085;DHT22;9675;51.538;6.728;2023-10-13T00:53:32;18.10;99.90
19085;DHT22;9675;51.538;6.728;2023-10-13T00:56:00;18.10;99.90
19085;DHT22;9675;51.538;6.728;2023-10-13T00:58:32;18.10;99.90
19085;DHT22;9675;51.538;6.728;2023-10-13T01:00:59;18.10;99.90
19085;DHT22;9675;51.538;6.728;2023-10-13T01:03:44;18.10;99.90
19085;DHT22;9675;51.538;6.728;2023-10-13T01:06:11;18.10;99.90
19085;DHT22;9675;51.538;6.728;2023-10-13T01:08:39;18.10;99.90
19085;DHT22;9675;51.538;6.728;2023-10-13T01:11:11;18.10;99.90
19085;DHT22;9675;51.538;6.728;2023-10-13T01:13:39;18.10;99.90
19085;DHT22;9675;51.538;6.728;2023-10-13T01:16:07;18.10;99.90
19085;DHT22;9675;51.538;6.728;2023-10-13T01:18:33;18.10;99.90
19085;DHT22;9675;51.538;6.728;2023-10-13T01:21:13;18.10;99.90
19085;DHT22;9675;51.538;6.728;2023-10-13T01:23:43;18.10;99.90
19085;DHT22;9675;51.538;6.728;2023-10-13T01:26:12;18.10;99.90
19085;DHT22;9675;51.538;6.728;2023-10-13T01:28:41;18.10;99.90
19085;DHT22;9675;51.538;6.728;2023-10-13T01:31:14;18.10;99.90
19085;DHT22;9675;51.538;6.728;2023-10-13T01:33:51;18.10;99.90
19085;DHT22;9675;51.538;6.728;2023-10-13T01:36:21;18.10;99.90
19085;DHT22;9675;51.538;6.728;2023-10-13T01:38:49;18.10;99.90
19085;DHT22;9675;51.538;6.728;2023-10-13T01:41:17;18.10;99.90
19085;DHT22;9675;51.538;6.728;2023-10-13T01:43:44;18.10;99.90
19085;DHT22;9675;51.538;6.728;2023-10-13T01:46:11;18.10;99.90
19085;DHT22;9675;51.538;6.728;2023-10-13T01:48:40;18.10;99.90
19085;DHT22;9675;51.538;6.728;2023-10-13T01:51:09;18.10;99.90
19085;DHT22;9675;51.538;6.728;2023-10-13T01:53:37;18.10;99.90
19085;DHT22;9675;51.538;6.728;2023-10-13T01:56:06;18.10;99.90
19085;DHT22;9675;51.538;6.728;2023-10-13T01:58:37;18.10;99.90
19085;DHT22;9675;51.538;6.728;2023-10-13T02:01:06;18.10;99.90
19085;DHT22;9675;51.538;6.728;2023-10-13T02:03:34;18.10;99.90
19085;DHT22;9675;51.538;6.728;2023-10-13T02:06:07;18.10;99.90
19085;DHT22;9675;51.538;6.728;2023-10-13T02:08:36;18.10;99.90
19085;DHT22;9675;51.538;6.728;2023-10-13T02:11:10;18.10;99.90
19085;DHT22;9675;51.538;6.728;2023-10-13T02:13:37;18.10;99.90
19085;DHT22;9675;51.538;6.728;2023-10-13T02:16:13;18.10;99.90
19085;DHT22;9675;51.538;6.728;2023-10-13T02:18:44;18.10;99.90
19085;DHT22;9675;51.538;6.728;2023-10-13T02:21:16;18.10;99.90
19085;DHT22;9675;51.538;6.728;2023-10-13T02:23:44;18.20;99.90
19085;DHT22;9675;51.538;6.728;2023-10-13T02:26:12;18.20;99.90
19085;DHT22;9675;51.538;6.728;2023-10-13T02:28:40;18.20;99.90
19085;DHT22;9675;51.538;6.728;2023-10-13T02:31:07;18.20;99.90
19085;DHT22;9675;51.538;6.728;2023-10-13T02:33:34;18.20;99.90
19085;DHT22;9675;51.538;6.728;2023-10-13T02:36:03;18.20;99.90
19085;DHT22;9675;51.538;6.728;2023-10-13T02:38:31;18.10;99.90
19085;DHT22;9675;51.538;6.728;2023-10-13T02:41:00;18.10;99.90
19085;DHT22;9675;51.538;6.728;2023-10-13T02:43:34;18.20;99.90
19085;DHT22;9675;51.538;6.728;2023-10-13T02:46:01;18.10;99.90
19085;DHT22;9675;51.538;6.728;2023-10-13T02:48:30;18.20;99.90
19085;DHT22;9675;51.538;6.728;2023-10-13T02:51:05;18.20;99.90
19085;DHT22;9675;51.538;6.728;2023-10-13T02:53:41;18.10;99.90
19085;DHT22;9675;51.538;6.728;2023-10-13T02:56:12;18.20;99.90
19085;DHT22;9675;51.538;6.728;2023-10-13T02:58:41;18.20;99.90
19085;DHT22;9675;51.538;6.728;2023-10-13T03:01:11;18.20;99.90
19085;DHT22;9675;51.538;6.728;2023-10-13T03:03:45;18.20;99.90
19085;DHT22;9675;51.538;6.728;2023-10-13T03:06:16;18.20;99.90
19085;DHT22;9675;51.538;6.728;2023-10-13T03:08:47;18.20;99.90
19085;DHT22;9675;51.538;6.728;2023-10-13T03:11:13;18.20;99.90
19085;DHT22;9675;51.538;6.728;2023-10-13T03:13:48;18.20;99.90
19085;DHT22;9675;51.538;6.728;2023-10-13T03:16:17;18.20;99.90
19085;DHT22;9675;51.538;6.728;2023-10-13T03:18:47;18.20;99.90
19085;DHT22;9675;51.538;6.728;2023-10-13T03:21:23;18.20;99.90
19085;DHT22;9675;51.538;6.728;2023-10-13T03:23:57;18.30;99.90
19085;DHT22;9675;51.538;6.728;2023-10-13T03:26:30;18.30;99.90
19085;DHT22;9675;51.538;6.728;2023-10-13T03:29:02;18.30;99.90
19085;DHT22;9675;51.538;6.728;2023-10-13T03:31:33;18.20;99.90
19085;DHT22;9675;51.538;6.728;2023-10-13T03:34:04;18.20;99.90
19085;DHT22;9675;51.538;6.728;2023-10-13T03:36:35;18.30;99.90
19085;DHT22;9675;51.538;6.728;2023-10-13T03:39:20;18.30;99.90
19085;DHT22;9675;51.538;6.728;2023-10-13T03:41:52;18.30;99.90
19085;DHT22;9675;51.538;6.728;2023-10-13T03:44:21;18.20;99.90
19085;DHT22;9675;51.538;6.728;2023-10-13T03:46:48;18.30;99.90
19085;DHT22;9675;51.538;6.728;2023-10-13T03:49:19;18.20;99.90
19085;DHT22;9675;51.538;6.728;2023-10-13T03:51:48;18.30;99.90
19085;DHT22;9675;51.538;6.728;2023-10-13T03:54:16;18.30;99.90
19085;DHT22;9675;51.538;6.728;2023-10-13T03:56:43;18.30;99.90
19085;DHT22;9675;51.538;6.728;2023-10-13T03:59:11;18.30;99.90
19085;DHT22;9675;51.538;6.728;2023-10-13T04:01:46;18.30;99.90
19085;DHT22;9675;51.538;6.728;2023-10-13T04:04:24;18.20;99.90
19085;DHT22;9675;51.538;6.728;2023-10-13T04:07:07;18.30;99.90
19085;DHT22;9675;51.538;6.728;2023-10-13T04:10:06;18.20;99.90
19085;DHT22;9675;51.538;6.728;2023-10-13T04:13:00;18.30;99.90
19085;DHT22;9675;51.538;6.728;2023-10-13T04:15:44;18.20;99.90
19085;DHT22;9675;51.538;6.728;2023-10-13T04:18:26;18.30;99.90
19085;DHT22;9675;51.538;6.728;2023-10-13T04:20:59;18.30;99.90
19085;DHT22;9675;51.538;6.728;2023-10-13T04:23:44;18.20;99.90
19085;DHT22;9675;51.538;6.728;2023-10-13T04:26:29;18.30;99.90
19085;DHT22;9675;51.538;6.728;2023-10-13T04:29:03;18.30;99.90
19085;DHT22;9675;51.538;6.728;2023-10-13T04:31:36;18.30;99.90
19085;DHT22;9675;51.538;6.728;2023-10-13T04:34:24;18.30;99.90
19085;DHT22;9675;51.538;6.728;2023-10-13T04:36:59;18.30;99.90
19085;DHT22;9675;51.538;6.728;2023-10-13T04:39:48;18.20;99.90
19085;DHT22;9675;51.538;6.728;2023-10-13T04:42:22;18.30;99.90
19085;DHT22;9675;51.538;6.728;2023-10-13T04:45:06;18.30;99.90
19085;DHT22;9675;51.538;6.728;2023-10-13T04:47:53;18.30;99.90
19085;DHT22;9675;51.538;6.728;2023-10-13T04:50:40;18.20;99.90
19085;DHT22;9675;51.538;6.728;2023-10-13T04:53:11;18.30;99.90
19085;DHT22;9675;51.538;6.728;2023-10-13T04:55:54;18.30;99.90
19085;DHT22;9675;51.538;6.728;2023-10-13T04:58:53;18.30;99.90
19085;DHT22;9675;51.538;6.728;2023-10-13T05:01:40;18.30;99.90
19085;DHT22;9675;51.538;6.728;2023-10-13T05:04:24;18.30;99.90
19085;DHT22;9675;51.538;6.728;2023-10-13T05:07:05;18.30;99.90
19085;DHT22;9675;51.538;6.728;2023-10-13T05:09:50;18.20;99.90
19085;DHT22;9675;51.538;6.728;2023-10-13T05:12:35;18.30;99.90
19085;DHT22;9675;51.538;6.728;2023-10-13T05:15:19;18.30;99.90
19085;DHT22;9675;51.538;6.728;2023-10-13T05:18:04;18.30;99.90
19085;DHT22;9675;51.538;6.728;2023-10-13T05:20:48;18.30;99.90
19085;DHT22;9675;51.538;6.728;2023-10-13T05:23:34;18.30;99.90
19085;DHT22;9675;51.538;6.728;2023-10-13T05:26:19;18.30;99.90
19085;DHT22;9675;51.538;6.728;2023-10-13T05:29:03;18.30;99.90
19085;DHT22;9675;51.538;6.728;2023-10-13T05:31:48;18.30;99.90
19085;DHT22;9675;51.538;6.728;2023-10-13T05:34:33;18.30;99.90
19085;DHT22;9675;51.538;6.728;2023-10-13T05:37:17;18.30;99.90
19085;DHT22;9675;51.538;6.728;2023-10-13T05:40:04;18.30;99.90
19085;DHT22;9675;51.538;6.728;2023-10-13T05:42:48;18.30;99.90
19085;DHT22;9675;51.538;6.728;2023-10-13T05:45:35;18.30;99.90
19085;DHT22;9675;51.538;6.728;2023-10-13T05:48:26;18.30;99.90
19085;DHT22;9675;51.538;6.728;2023-10-13T05:51:08;18.40;99.90
19085;DHT22;9675;51.538;6.728;2023-10-13T05:54:04;18.30;99.90
19085;DHT22;9675;51.538;6.728;2023-10-13T05:56:51;18.30;99.90
19085;DHT22;9675;51.538;6.728;2023-10-13T05:59:37;18.40;99.90
19085;DHT22;9675;51.538;6.728;2023-10-13T06:02:23;18.40;99.90
19085;DHT22;9675;51.538;6.728;2023-10-13T06:05:09;18.40;99.90
19085;DHT22;9675;51.538;6.728;2023-10-13T06:07:56;18.40;99.90
19085;DHT22;9675;51.538;6.728;2023-10-13T06:10:41;18.40;99.90
19085;DHT22;9675;51.538;6.728;2023-10-13T06:13:28;18.40;99.90
19085;DHT22;9675;51.538;6.728;2023-10-13T06:16:14;18.40;99.90
19085;DHT22;9675;51.538;6.728;2023-10-13T06:19:00;18.40;99.90
19085;DHT22;9675;51.538;6.728;2023-10-13T06:21:46;18.40;99.90
19085;DHT22;9675;51.538;6.728;2023-10-13T06:24:31;18.40;99.90
19085;DHT22;9675;51.538;6.728;2023-10-13T06:27:16;18.40;99.90
19085;DHT22;9675;51.538;6.728;2023-10-13T06:30:11;18.40;99.90
19085;DHT22;9675;51.538;6.728;2023-10-13T06:32:39;18.40;99.90
19085;DHT22;9675;51.538;6.728;2023-10-13T06:35:07;18.40;99.90
19085;DHT22;9675;51.538;6.728;2023-10-13T06:37:34;18.40;99.90
19085;DHT22;9675;51.538;6.728;2023-10-13T06:40:10;18.50;99.90
19085;DHT22;9675;51.538;6.728;2023-10-13T06:42:48;18.50;99.90
19085;DHT22;9675;51.538;6.728;2023-10-13T06:45:16;18.40;99.90
19085;DHT22;9675;51.538;6.728;2023-10-13T06:47:44;18.50;99.90
19085;DHT22;9675;51.538;6.728;2023-10-13T06:50:11;18.50;99.90
19085;DHT22;9675;51.538;6.728;2023-10-13T06:52:41;18.50;99.90
19085;DHT22;9675;51.538;6.728;2023-10-13T06:55:09;18.50;99.90
19085;DHT22;9675;51.538;6.728;2023-10-13T06:57:37;18.50;99.90
19085;DHT22;9675;51.538;6.728;2023-10-13T07:00:09;18.50;99.90
19085;DHT22;9675;51.538;6.728;2023-10-13T07:02:46;18.50;99.90
19085;DHT22;9675;51.538;6.728;2023-10-13T07:05:13;18.50;99.90
19085;DHT22;9675;51.538;6.728;2023-10-13T07:07:41;18.50;99.90
19085;DHT22;9675;51.538;6.728;2023-10-13T07:10:10;18.50;99.90
19085;DHT22;9675;51.538;6.728;2023-10-13T07:12:38;18.50;99.90
19085;DHT22;9675;51.538;6.728;2023-10-13T07:15:09;18.50;99.90
19085;DHT22;9675;51.538;6.728;2023-10-13T07:17:46;18.50;99.90
19085;DHT22;9675;51.538;6.728;2023-10-13T07:20:20;18.50;99.90
19085;DHT22;9675;51.538;6.728;2023-10-13T07:22:50;18.60;99.90
19085;DHT22;9675;51.538;6.728;2023-10-13T07:25:23;18.50;99.90
19085;DHT22;9675;51.538;6.728;2023-10-13T07:27:51;18.60;99.90
19085;DHT22;9675;51.538;6.728;2023-10-13T07:30:19;18.60;99.90
19085;DHT22;9675;51.538;6.728;2023-10-13T07:32:53;18.60;99.90
19085;DHT22;9675;51.538;6.728;2023-10-13T07:35:23;18.60;99.90
19085;DHT22;9675;51.538;6.728;2023-10-13T07:37:52;18.60;99.90
19085;DHT22;9675;51.538;6.728;2023-10-13T07:40:21;18.60;99.90
19085;DHT22;9675;51.538;6.728;2023-10-13T07:43:05;18.60;99.90
19085;DHT22;9675;51.538;6.728;2023-10-13T07:45:36;18.70;99.90
19085;DHT22;9675;51.538;6.728;2023-10-13T07:48:06;18.70;99.90
19085;DHT22;9675;51.538;6.728;2023-10-13T07:50:42;18.80;99.90
19085;DHT22;9675;51.538;6.728;2023-10-13T07:53:11;19.00;99.90
19085;DHT22;9675;51.538;6.728;2023-10-13T07:55:48;19.00;99.90
19085;DHT22;9675;51.538;6.728;2023-10-13T07:58:20;19.10;99.90
19085;DHT22;9675;51.538;6.728;2023-10-13T08:00:50;19.10;99.90
19085;DHT22;9675;51.538;6.728;2023-10-13T08:03:33;19.20;99.90
19085;DHT22;9675;51.538;6.728;2023-10-13T08:06:13;19.30;99.90
19085;DHT22;9675;51.538;6.728;2023-10-13T08:08:47;19.30;99.90
19085;DHT22;9675;51.538;6.728;2023-10-13T08:11:19;19.40;99.90
19085;DHT22;9675;51.538;6.728;2023-10-13T08:13:57;19.40;99.90
19085;DHT22;9675;51.538;6.728;2023-10-13T08:16:28;19.40;99.90
19085;DHT22;9675;51.538;6.728;2023-10-13T08:19:12;19.50;99.90
19085;DHT22;9675;51.538;6.728;2023-10-13T08:21:42;19.50;99.90
19085;DHT22;9675;51.538;6.728;2023-10-13T08:24:15;19.60;99.90
19085;DHT22;9675;51.538;6.728;2023-10-13T08:26:50;19.70;99.90
19085;DHT22;9675;51.538;6.728;2023-10-13T08:29:23;19.70;99.90
19085;DHT22;9675;51.538;6.728;2023-10-13T08:32:08;19.80;99.90
19085;DHT22;9675;51.538;6.728;2023-10-13T08:34:47;19.90;99.90
19085;DHT22;9675;51.538;6.728;2023-10-13T08:37:35;20.00;99.90
19085;DHT22;9675;51.538;6.728;2023-10-13T08:40:13;20.10;99.90
19085;DHT22;9675;51.538;6.728;2023-10-13T08:43:05;20.20;99.90
19085;DHT22;9675;51.538;6.728;2023-10-13T08:45:38;20.30;99.90
19085;DHT22;9675;51.538;6.728;2023-10-13T08:48:24;20.30;99.90
19085;DHT22;9675;51.538;6.728;2023-10-13T08:50:58;20.40;99.90
19085;DHT22;9675;51.538;6.728;2023-10-13T08:53:36;20.50;99.90
19085;DHT22;9675;51.538;6.728;2023-10-13T08:56:12;20.60;99.90
19085;DHT22;9675;51.538;6.728;2023-10-13T08:58:44;20.60;99.90
19085;DHT22;9675;51.538;6.728;2023-10-13T09:01:36;20.60;99.90
19085;DHT22;9675;51.538;6.728;2023-10-13T09:04:12;20.70;99.90
19085;DHT22;9675;51.538;6.728;2023-10-13T09:07:01;20.80;99.90
19085;DHT22;9675;51.538;6.728;2023-10-13T09:09:45;20.80;99.90
19085;DHT22;9675;51.538;6.728;2023-10-13T09:12:26;20.90;99.90
19085;DHT22;9675;51.538;6.728;2023-10-13T09:15:07;20.90;99.90
19085;DHT22;9675;51.538;6.728;2023-10-13T09:17:45;21.00;99.90
19085;DHT22;9675;51.538;6.728;2023-10-13T09:20:29;21.00;99.90
19085;DHT22;9675;51.538;6.728;2023-10-13T09:23:10;21.10;99.90
19085;DHT22;9675;51.538;6.728;2023-10-13T09:25:49;21.20;99.90
19085;DHT22;9675;51.538;6.728;2023-10-13T09:28:20;21.20;99.90
19085;DHT22;9675;51.538;6.728;2023-10-13T09:30:51;21.30;99.90
19085;DHT22;9675;51.538;6.728;2023-10-13T09:33:20;21.30;99.90
19085;DHT22;9675;51.538;6.728;2023-10-13T09:35:54;21.40;99.90
19085;DHT22;9675;51.538;6.728;2023-10-13T09:38:26;21.50;99.90
19085;DHT22;9675;51.538;6.728;2023-10-13T09:40:53;21.50;99.90
19085;DHT22;9675;51.538;6.728;2023-10-13T09:43:23;21.60;99.90
19085;DHT22;9675;51.538;6.728;2023-10-13T09:45:52;21.70;99.90
19085;DHT22;9675;51.538;6.728;2023-10-13T09:48:32;21.80;99.90
19085;DHT22;9675;51.538;6.728;2023-10-13T09:51:01;21.80;99.90
19085;DHT22;9675;51.538;6.728;2023-10-13T09:53:32;21.80;99.90
19085;DHT22;9675;51.538;6.728;2023-10-13T09:56:03;21.90;99.90
19085;DHT22;9675;51.538;6.728;2023-10-13T09:58:46;21.90;99.90
19085;DHT22;9675;51.538;6.728;2023-10-13T10:01:19;22.00;99.90
19085;DHT22;9675;51.538;6.728;2023-10-13T10:04:07;22.10;99.90
19085;DHT22;9675;51.538;6.728;2023-10-13T10:06:35;22.20;99.90
19085;DHT22;9675;51.538;6.728;2023-10-13T10:09:11;22.20;99.90
19085;DHT22;9675;51.538;6.728;2023-10-13T10:12:07;22.20;99.90
19085;DHT22;9675;51.538;6.728;2023-10-13T10:15:07;22.30;99.90
19085;DHT22;9675;51.538;6.728;2023-10-13T10:17:41;22.30;99.90
19085;DHT22;9675;51.538;6.728;2023-10-13T10:20:10;22.40;99.90
19085;DHT22;9675;51.538;6.728;2023-10-13T10:22:57;22.40;99.90
19085;DHT22;9675;51.538;6.728;2023-10-13T10:25:31;22.50;99.90
19085;DHT22;9675;51.538;6.728;2023-10-13T10:28:02;22.50;99.90
19085;DHT22;9675;51.538;6.728;2023-10-13T10:30:32;22.50;99.90
19085;DHT22;9675;51.538;6.728;2023-10-13T10:33:01;22.50;99.90
19085;DHT22;9675;51.538;6.728;2023-10-13T10:35:38;22.60;99.90
19085;DHT22;9675;51.538;6.728;2023-10-13T10:38:10;22.50;99.90
19085;DHT22;9675;51.538;6.728;2023-10-13T10:40:55;22.60;99.90
19085;DHT22;9675;51.538;6.728;2023-10-13T10:43:27;22.60;99.90
19085;DHT22;9675;51.538;6.728;2023-10-13T10:46:07;22.60;99.90
19085;DHT22;9675;51.538;6.728;2023-10-13T10:48:36;22.70;99.90
19085;DHT22;9675;51.538;6.728;2023-10-13T10:51:08;22.70;99.90
19085;DHT22;9675;51.538;6.728;2023-10-13T10:53:47;22.70;99.90
19085;DHT22;9675;51.538;6.728;2023-10-13T10:56:17;22.80;99.90
19085;DHT22;9675;51.538;6.728;2023-10-13T10:58:53;22.80;99.90
19085;DHT22;9675;51.538;6.728;2023-10-13T11:01:22;22.80;99.90
19085;DHT22;9675;51.538;6.728;2023-10-13T11:03:57;22.80;99.90
19085;DHT22;9675;51.538;6.728;2023-10-13T11:06:34;22.90;99.90
19085;DHT22;9675;51.538;6.728;2023-10-13T11:09:08;22.90;99.90
19085;DHT22;9675;51.538;6.728;2023-10-13T11:11:46;22.90;99.90
19085;DHT22;9675;51.538;6.728;2023-10-13T11:14:21;22.90;99.90
19085;DHT22;9675;51.538;6.728;2023-10-13T11:16:50;23.00;99.90
19085;DHT22;9675;51.538;6.728;2023-10-13T11:19:19;23.00;99.90
19085;DHT22;9675;51.538;6.728;2023-10-13T11:21:54;23.00;99.90
19085;DHT22;9675;51.538;6.728;2023-10-13T11:24:21;23.10;99.90
19085;DHT22;9675;51.538;6.728;2023-10-13T11:26:50;23.10;99.90
19085;DHT22;9675;51.538;6.728;2023-10-13T11:29:30;23.10;99.90
19085;DHT22;9675;51.538;6.728;2023-10-13T11:31:59;23.10;99.90
19085;DHT22;9675;51.538;6.728;2023-10-13T11:34:28;23.10;99.90
19085;DHT22;9675;51.538;6.728;2023-10-13T11:37:05;23.20;99.90
19085;DHT22;9675;51.538;6.728;2023-10-13T11:39:46;23.30;99.90
19085;DHT22;9675;51.538;6.728;2023-10-13T11:42:15;23.30;99.90
19085;DHT22;9675;51.538;6.728;2023-10-13T11:44:42;23.40;99.90
19085;DHT22;9675;51.538;6.728;2023-10-13T11:47:10;23.40;99.90
19085;DHT22;9675;51.538;6.728;2023-10-13T11:49:50;23.40;99.90
19085;DHT22;9675;51.538;6.728;2023-10-13T11:52:22;23.50;99.90
19085;DHT22;9675;51.538;6.728;2023-10-13T11:54:52;23.50;99.90
19085;DHT22;9675;51.538;6.728;2023-10-13T11:57:20;23.60;99.90
19085;DHT22;9675;51.538;6.728;2023-10-13T11:59:47;23.70;99.90
19085;DHT22;9675;51.538;6.728;2023-10-13T12:02:41;23.70;99.90
19085;DHT22;9675;51.538;6.728;2023-10-13T12:05:25;23.80;99.90
19085;DHT22;9675;51.538;6.728;2023-10-13T12:08:03;23.90;99.90
19085;DHT22;9675;51.538;6.728;2023-10-13T12:10:45;23.90;99.90
19085;DHT22;9675;51.538;6.728;2023-10-13T12:13:26;24.00;99.90
19085;DHT22;9675;51.538;6.728;2023-10-13T12:15:53;24.00;99.90
19085;DHT22;9675;51.538;6.728;2023-10-13T12:18:22;24.10;99.90
19085;DHT22;9675;51.538;6.728;2023-10-13T12:20:52;24.10;99.90
19085;DHT22;9675;51.538;6.728;2023-10-13T12:23:19;24.20;99.90
19085;DHT22;9675;51.538;6.728;2023-10-13T12:25:56;24.20;99.90
19085;DHT22;9675;51.538;6.728;2023-10-13T12:28:26;24.20;99.90
19085;DHT22;9675;51.538;6.728;2023-10-13T12:31:03;24.30;99.90
19085;DHT22;9675;51.538;6.728;2023-10-13T12:33:32;24.30;99.90
19085;DHT22;9675;51.538;6.728;2023-10-13T12:36:06;24.30;99.90
19085;DHT22;9675;51.538;6.728;2023-10-13T12:38:35;24.40;99.90
19085;DHT22;9675;51.538;6.728;2023-10-13T12:41:16;24.30;99.90
19085;DHT22;9675;51.538;6.728;2023-10-13T12:44:05;24.30;99.90
19085;DHT22;9675;51.538;6.728;2023-10-13T12:46:51;24.30;99.90
19085;DHT22;9675;51.538;6.728;2023-10-13T12:49:38;24.30;99.90
19085;DHT22;9675;51.538;6.728;2023-10-13T12:52:23;24.30;99.90
19085;DHT22;9675;51.538;6.728;2023-10-13T12:54:57;24.40;99.90
19085;DHT22;9675;51.538;6.728;2023-10-13T12:57:35;24.40;99.90
19085;DHT22;9675;51.538;6.728;2023-10-13T13:00:11;24.40;99.90
19085;DHT22;9675;51.538;6.728;2023-10-13T13:02:49;24.40;99.90
19085;DHT22;9675;51.538;6.728;2023-10-13T13:05:18;24.30;99.90
19085;DHT22;9675;51.538;6.728;2023-10-13T13:07:48;24.40;99.90
19085;DHT22;9675;51.538;6.728;2023-10-13T13:10:19;24.40;99.90
19085;DHT22;9675;51.538;6.728;2023-10-13T13:13:01;24.40;99.90
19085;DHT22;9675;51.538;6.728;2023-10-13T13:15:31;24.40;99.90
19085;DHT22;9675;51.538;6.728;2023-10-13T13:17:58;24.40;99.90
19085;DHT22;9675;51.538;6.728;2023-10-13T13:20:35;24.40;99.90
19085;DHT22;9675;51.538;6.728;2023-10-13T13:23:05;24.40;99.90
19085;DHT22;9675;51.538;6.728;2023-10-13T13:25:32;24.40;99.90
19085;DHT22;9675;51.538;6.728;2023-10-13T13:28:00;24.40;99.90
19085;DHT22;9675;51.538;6.728;2023-10-13T13:30:32;24.40;99.90
19085;DHT22;9675;51.538;6.728;2023-10-13T13:33:03;24.40;99.90
19085;DHT22;9675;51.538;6.728;2023-10-13T13:35:36;24.50;99.90
19085;DHT22;9675;51.538;6.728;2023-10-13T13:38:04;24.40;99.90
19085;DHT22;9675;51.538;6.728;2023-10-13T13:40:48;24.50;99.90
19085;DHT22;9675;51.538;6.728;2023-10-13T13:43:19;24.50;99.90
19085;DHT22;9675;51.538;6.728;2023-10-13T13:46:04;24.50;99.90
19085;DHT22;9675;51.538;6.728;2023-10-13T13:48:35;24.40;99.90
19085;DHT22;9675;51.538;6.728;2023-10-13T13:51:03;24.40;99.90
19085;DHT22;9675;51.538;6.728;2023-10-13T13:53:37;24.50;99.90
19085;DHT22;9675;51.538;6.728;2023-10-13T13:56:08;24.50;99.90
19085;DHT22;9675;51.538;6.728;2023-10-13T13:58:35;24.50;99.90
19085;DHT22;9675;51.538;6.728;2023-10-13T14:01:05;24.40;99.90
19085;DHT22;9675;51.538;6.728;2023-10-13T14:03:39;24.40;99.90
19085;DHT22;9675;51.538;6.728;2023-10-13T14:06:13;24.40;99.90
19085;DHT22;9675;51.538;6.728;2023-10-13T14:08:44;24.40;99.90
19085;DHT22;9675;51.538;6.728;2023-10-13T14:11:14;24.40;99.90
19085;DHT22;9675;51.538;6.728;2023-10-13T14:14:10;24.40;99.90
19085;DHT22;9675;51.538;6.728;2023-10-13T14:16:55;24.40;99.90
19085;DHT22;9675;51.538;6.728;2023-10-13T14:19:28;24.40;99.90
19085;DHT22;9675;51.538;6.728;2023-10-13T14:21:56;24.40;99.90
19085;DHT22;9675;51.538;6.728;2023-10-13T14:24:26;24.30;99.90
19085;DHT22;9675;51.538;6.728;2023-10-13T14:26:54;24.30;99.90
19085;DHT22;9675;51.538;6.728;2023-10-13T14:29:21;24.30;99.90
19085;DHT22;9675;51.538;6.728;2023-10-13T14:31:51;24.30;99.90
19085;DHT22;9675;51.538;6.728;2023-10-13T14:34:20;24.30;99.90
19085;DHT22;9675;51.538;6.728;2023-10-13T14:36:47;24.30;99.90
19085;DHT22;9675;51.538;6.728;2023-10-13T14:39:14;24.30;99.90
19085;DHT22;9675;51.538;6.728;2023-10-13T14:41:41;24.30;99.90
19085;DHT22;9675;51.538;6.728;2023-10-13T14:44:08;24.30;99.90
19085;DHT22;9675;51.538;6.728;2023-10-13T14:46:38;24.20;99.90
19085;DHT22;9675;51.538;6.728;2023-10-13T14:49:06;24.20;99.90
19085;DHT22;9675;51.538;6.728;2023-10-13T14:51:34;24.20;99.90
19085;DHT22;9675;51.538;6.728;2023-10-13T14:54:05;24.20;99.90
19085;DHT22;9675;51.538;6.728;2023-10-13T14:56:32;24.20;99.90
19085;DHT22;9675;51.538;6.728;2023-10-13T14:58:59;24.20;99.90
19085;DHT22;9675;51.538;6.728;2023-10-13T15:01:30;24.10;99.90
19085;DHT22;9675;51.538;6.728;2023-10-13T15:03:57;24.10;99.90
19085;DHT22;9675;51.538;6.728;2023-10-13T15:06:25;24.10;99.90
19085;DHT22;9675;51.538;6.728;2023-10-13T15:08:56;24.10;99.90
19085;DHT22;9675;51.538;6.728;2023-10-13T15:11:26;24.10;99.90
19085;DHT22;9675;51.538;6.728;2023-10-13T15:14:01;24.10;99.90
19085;DHT22;9675;51.538;6.728;2023-10-13T15:16:29;24.00;99.90
19085;DHT22;9675;51.538;6.728;2023-10-13T15:18:56;24.00;99.90
19085;DHT22;9675;51.538;6.728;2023-10-13T15:21:25;24.00;99.90
19085;DHT22;9675;51.538;6.728;2023-10-13T15:23:57;24.00;99.90
19085;DHT22;9675;51.538;6.728;2023-10-13T15:26:29;24.00;99.90
19085;DHT22;9675;51.538;6.728;2023-10-13T15:28:57;24.00;99.90
19085;DHT22;9675;51.538;6.728;2023-10-13T15:31:26;23.90;99.90
19085;DHT22;9675;51.538;6.728;2023-10-13T15:34:03;23.90;99.90
19085;DHT22;9675;51.538;6.728;2023-10-13T15:36:36;23.90;99.90
19085;DHT22;9675;51.538;6.728;2023-10-13T15:39:06;23.90;99.90
19085;DHT22;9675;51.538;6.728;2023-10-13T15:41:38;23.90;99.90
19085;DHT22;9675;51.538;6.728;2023-10-13T15:44:10;23.80;99.90
19085;DHT22;9675;51.538;6.728;2023-10-13T15:46:39;23.80;99.90
19085;DHT22;9675;51.538;6.728;2023-10-13T15:49:06;23.80;99.90
19085;DHT22;9675;51.538;6.728;2023-10-13T15:51:33;23.80;99.90
19085;DHT22;9675;51.538;6.728;2023-10-13T15:54:02;23.80;99.90
19085;DHT22;9675;51.538;6.728;2023-10-13T15:56:32;23.80;99.90
19085;DHT22;9675;51.538;6.728;2023-10-13T15:59:01;23.70;99.90
19085;DHT22;9675;51.538;6.728;2023-10-13T16:01:32;23.70;99.90
19085;DHT22;9675;51.538;6.728;2023-10-13T16:03:59;23.70;99.90
19085;DHT22;9675;51.538;6.728;2023-10-13T16:06:36;23.70;99.90
19085;DHT22;9675;51.538;6.728;2023-10-13T16:09:04;23.70;99.90
19085;DHT22;9675;51.538;6.728;2023-10-13T16:11:41;23.70;99.90
19085;DHT22;9675;51.538;6.728;2023-10-13T16:14:09;23.80;99.90
19085;DHT22;9675;51.538;6.728;2023-10-13T16:16:41;23.80;99.90
19085;DHT22;9675;51.538;6.728;2023-10-13T16:19:12;23.80;99.90
19085;DHT22;9675;51.538;6.728;2023-10-13T16:21:43;23.80;99.90
19085;DHT22;9675;51.538;6.728;2023-10-13T16:24:11;23.80;99.90
19085;DHT22;9675;51.538;6.728;2023-10-13T16:26:44;23.80;99.90
19085;DHT22;9675;51.538;6.728;2023-10-13T16:29:15;23.80;99.90